Time;durP1;ratioP1;P1;durP2;ratioP2;P2;SDS_P1;SDS_P2;PMS_P1;PMS_P2;Temp;Humidity;BMP_temperature;BMP_pressure;BME280_temperature;BME280_humidity;BME280_pressure;Samples;Min_cycle;Max_cycle;Signal;HPM_P1;HPM_P2
2022/05/21 00:01:43;;;;;;;8.68;2.50;;;;;;;;;;4977699;28;20093;-72
2022/05/21 00:04:10;;;;;;;7.03;2.70;;;;;;;;;;4977267;28;20053;-72
2022/05/21 00:06:38;;;;;;;10.70;2.60;;;;;;;;;;4977684;28;20394;-72
2022/05/21 00:09:06;;;;;;;8.35;2.30;;;;;;;;;;4977346;28;20050;-71
2022/05/21 00:11:33;;;;;;;8.95;2.55;;;;;;;;;;4977448;28;20416;-69
2022/05/21 00:14:00;;;;;;;9.25;2.50;;;;;;;;;;4977344;28;20019;-72
2022/05/21 00:16:27;;;;;;;6.57;2.30;;;;;;;;;;4977425;28;20027;-73
2022/05/21 00:18:54;;;;;;;6.40;2.22;;;;;;;;;;4977199;28;20033;-73
2022/05/21 00:21:21;;;;;;;8.23;2.80;;;;;;;;;;4975960;28;20030;-73
2022/05/21 00:23:49;;;;;;;9.25;2.70;;;;;;;;;;4975873;28;20043;-73
2022/05/21 00:26:16;;;;;;;5.35;2.20;;;;;;;;;;4977220;28;20015;-72
2022/05/21 00:28:44;;;;;;;9.25;2.20;;;;;;;;;;4977129;28;20030;-73
2022/05/21 00:31:12;;;;;;;8.00;2.03;;;;;;;;;;4977150;28;20034;-74
2022/05/21 00:33:40;;;;;;;11.80;3.20;;;;;;;;;;4977192;28;20410;-73
2022/05/21 00:36:10;;;;;;;11.13;2.90;;;;;;;;;;4976995;28;20022;-73
2022/05/21 00:38:38;;;;;;;7.13;1.95;;;;;;;;;;4975543;28;20034;-74
2022/05/21 00:41:06;;;;;;;9.93;2.55;;;;;;;;;;4976847;28;20103;-74
2022/05/21 00:43:59;;;;;;;11.13;2.28;;;;;;;;;;4976902;28;20027;-74
2022/05/21 00:46:31;;;;;;;7.55;1.75;;;;;;;;;;4972789;28;20483;-75
2022/05/21 00:49:13;;;;;;;6.63;2.35;;;;;;;;;;4976685;28;20023;-74
2022/05/21 00:51:51;;;;;;;6.53;2.25;;;;;;;;;;4977055;28;20375;-74
2022/05/21 00:54:19;;;;;;;8.70;2.53;;;;;;;;;;4975504;28;20435;-74
2022/05/21 00:56:49;;;;;;;8.23;2.20;;;;;;;;;;4976825;28;20019;-74
2022/05/21 01:02:03;;;;;;;10.02;2.63;;;;;;;;;;4976666;28;20042;-74
2022/05/21 01:04:32;;;;;;;8.38;2.28;;;;;;;;;;4976427;28;20116;-74
2022/05/21 01:07:00;;;;;;;7.88;2.40;;;;;;;;;;4976834;28;20488;-75
2022/05/21 01:09:27;;;;;;;8.43;2.25;;;;;;;;;;4976140;28;20058;-73
2022/05/21 01:11:56;;;;;;;6.22;2.00;;;;;;;;;;4976345;28;20019;-73
2022/05/21 01:14:23;;;;;;;7.90;2.45;;;;;;;;;;4976400;28;20158;-73
2022/05/21 01:16:51;;;;;;;5.93;2.72;;;;;;;;;;4976579;28;20142;-72
2022/05/21 01:19:19;;;;;;;8.40;2.67;;;;;;;;;;4976509;28;20031;-73
2022/05/21 01:21:47;;;;;;;6.45;2.00;;;;;;;;;;4976211;28;20106;-72
2022/05/21 01:24:14;;;;;;;7.93;2.15;;;;;;;;;;4975139;28;20026;-74
2022/05/21 01:26:41;;;;;;;7.30;2.20;;;;;;;;;;4976144;28;20444;-73
2022/05/21 01:29:19;;;;;;;8.90;2.45;;;;;;;;;;4976119;28;20530;-73
2022/05/21 01:31:50;;;;;;;8.65;2.55;;;;;;;;;;4974605;28;20114;-73
2022/05/21 01:34:18;;;;;;;7.43;2.03;;;;;;;;;;4976160;28;20094;-73
2022/05/21 01:36:46;;;;;;;7.00;2.00;;;;;;;;;;4975864;28;20431;-73
2022/05/21 01:39:13;;;;;;;7.93;2.63;;;;;;;;;;4974592;28;20035;-73
2022/05/21 01:41:44;;;;;;;9.88;2.75;;;;;;;;;;4975881;28;20517;-73
2022/05/21 01:46:57;;;;;;;5.30;1.70;;;;;;;;;;4975670;28;20063;-73
2022/05/21 01:49:25;;;;;;;7.15;1.83;;;;;;;;;;4975627;28;20026;-73
2022/05/21 01:51:52;;;;;;;3.72;1.05;;;;;;;;;;4974194;28;20023;-73
2022/05/21 01:54:19;;;;;;;5.93;0.93;;;;;;;;;;4975733;28;20090;-73
2022/05/21 01:56:46;;;;;;;4.47;1.20;;;;;;;;;;4975666;28;20033;-73
2022/05/21 01:59:13;;;;;;;5.32;1.08;;;;;;;;;;4975358;28;20027;-73
2022/05/21 02:01:40;;;;;;;5.00;1.48;;;;;;;;;;4975257;28;20538;-72
2022/05/21 02:04:07;;;;;;;5.93;1.05;;;;;;;;;;4975258;28;20954;-72
2022/05/21 02:06:35;;;;;;;3.15;0.80;;;;;;;;;;4975502;28;20470;-72
2022/05/21 02:09:02;;;;;;;4.95;0.80;;;;;;;;;;4975204;28;20027;-73
2022/05/21 02:11:29;;;;;;;7.10;1.27;;;;;;;;;;4975414;28;20023;-73
2022/05/21 02:13:56;;;;;;;7.93;1.33;;;;;;;;;;4975162;28;20034;-73
2022/05/21 02:16:23;;;;;;;6.38;0.90;;;;;;;;;;4975156;28;20383;-73
2022/05/21 02:18:51;;;;;;;3.38;0.65;;;;;;;;;;4975134;28;20027;-73
2022/05/21 02:21:18;;;;;;;5.15;0.60;;;;;;;;;;4974490;28;20109;-73
2022/05/21 02:23:45;;;;;;;5.28;0.70;;;;;;;;;;4973797;28;20380;-73
2022/05/21 02:26:13;;;;;;;5.45;0.70;;;;;;;;;;4974960;28;20023;-74
2022/05/21 02:28:40;;;;;;;4.60;0.60;;;;;;;;;;4973739;28;20482;-73
2022/05/21 02:31:07;;;;;;;2.67;0.40;;;;;;;;;;4973602;28;20030;-73
2022/05/21 02:33:35;;;;;;;4.65;0.85;;;;;;;;;;4975072;28;20023;-73
2022/05/21 02:36:02;;;;;;;2.30;0.50;;;;;;;;;;4974873;28;20033;-73
2022/05/21 02:41:15;;;;;;;4.97;0.70;;;;;;;;;;4974832;28;20089;-73
2022/05/21 02:43:43;;;;;;;6.97;0.90;;;;;;;;;;4974738;28;20114;-73
2022/05/21 02:46:11;;;;;;;3.17;0.60;;;;;;;;;;4974840;28;20102;-73
2022/05/21 02:48:38;;;;;;;5.30;0.50;;;;;;;;;;4974526;28;20097;-73
2022/05/21 02:51:05;;;;;;;5.85;0.82;;;;;;;;;;4974491;28;20372;-73
2022/05/21 02:53:33;;;;;;;3.30;0.60;;;;;;;;;;4974419;28;20558;-73
2022/05/21 02:56:11;;;;;;;4.45;0.57;;;;;;;;;;4974770;28;20027;-73
2022/05/21 02:58:38;;;;;;;4.82;1.05;;;;;;;;;;4973234;28;20435;-73
2022/05/21 03:01:05;;;;;;;5.50;0.80;;;;;;;;;;4974484;28;20055;-72
2022/05/21 03:03:32;;;;;;;4.72;0.88;;;;;;;;;;4974411;28;20503;-73
2022/05/21 03:06:00;;;;;;;3.40;0.60;;;;;;;;;;4974217;28;20049;-73
2022/05/21 03:11:12;;;;;;;4.65;0.50;;;;;;;;;;4974277;28;20038;-73
2022/05/21 03:13:39;;;;;;;5.30;0.75;;;;;;;;;;4974426;28;20043;-70
2022/05/21 03:16:07;;;;;;;4.35;1.05;;;;;;;;;;4974222;28;20042;-74
2022/05/21 03:18:34;;;;;;;4.10;0.93;;;;;;;;;;4974150;28;20027;-73
2022/05/21 03:21:01;;;;;;;5.47;0.85;;;;;;;;;;4974310;28;20031;-72
2022/05/21 03:23:28;;;;;;;4.03;0.60;;;;;;;;;;4974127;28;20035;-72
2022/05/21 03:25:55;;;;;;;4.03;1.02;;;;;;;;;;4974170;28;20094;-73
2022/05/21 03:28:22;;;;;;;5.13;1.27;;;;;;;;;;4974167;28;20030;-73
2022/05/21 03:30:50;;;;;;;6.28;1.02;;;;;;;;;;4973954;28;20459;-74
2022/05/21 03:33:17;;;;;;;5.90;1.23;;;;;;;;;;4975042;28;20042;-74
2022/05/21 03:35:44;;;;;;;6.78;1.27;;;;;;;;;;4977105;28;20022;-73
2022/05/21 03:38:12;;;;;;;6.68;1.10;;;;;;;;;;4978271;28;20019;-73
2022/05/21 03:40:39;;;;;;;4.70;1.20;;;;;;;;;;4978098;28;20052;-74
2022/05/21 03:43:08;;;;;;;8.90;1.40;;;;;;;;;;4976672;28;20396;-74
2022/05/21 03:45:35;;;;;;;7.97;0.90;;;;;;;;;;4976599;28;20078;-73
2022/05/21 03:48:02;;;;;;;5.20;0.98;;;;;;;;;;4977877;28;20572;-74
2022/05/21 03:50:32;;;;;;;4.25;0.98;;;;;;;;;;4978024;28;20029;-74
2022/05/21 03:53:00;;;;;;;4.25;1.50;;;;;;;;;;4977786;28;20022;-73
2022/05/21 03:55:27;;;;;;;7.05;1.63;;;;;;;;;;4977665;28;20030;-73
2022/05/21 03:57:54;;;;;;;6.85;1.30;;;;;;;;;;4977611;28;20426;-72
2022/05/21 04:00:22;;;;;;;5.93;1.17;;;;;;;;;;4977860;28;20070;-73
2022/05/21 04:02:49;;;;;;;9.13;1.80;;;;;;;;;;4977716;28;20053;-73
2022/05/21 04:05:16;;;;;;;9.23;1.70;;;;;;;;;;4977373;28;20051;-73
2022/05/21 04:07:44;;;;;;;9.50;2.25;;;;;;;;;;4977698;28;20027;-73
2022/05/21 04:10:12;;;;;;;9.90;2.17;;;;;;;;;;4977422;28;20031;-73
2022/05/21 04:12:39;;;;;;;8.13;1.60;;;;;;;;;;4977526;28;20471;-74
2022/05/21 04:15:07;;;;;;;5.82;1.60;;;;;;;;;;4976127;28;20026;-74
2022/05/21 04:17:34;;;;;;;6.90;1.30;;;;;;;;;;4976127;28;20379;-74
2022/05/21 04:20:01;;;;;;;7.55;1.55;;;;;;;;;;4977317;28;20111;-74
2022/05/21 04:22:28;;;;;;;7.50;2.00;;;;;;;;;;4975977;28;20023;-74
2022/05/21 04:24:56;;;;;;;6.57;1.52;;;;;;;;;;4977452;28;20038;-73
2022/05/21 04:27:23;;;;;;;9.13;1.63;;;;;;;;;;4977231;28;20057;-73
2022/05/21 04:29:50;;;;;;;8.68;1.27;;;;;;;;;;4977060;28;20027;-74
2022/05/21 04:32:19;;;;;;;5.85;1.13;;;;;;;;;;4977172;28;20101;-73
2022/05/21 04:34:47;;;;;;;3.47;1.30;;;;;;;;;;4975775;28;20479;-73
2022/05/21 04:37:14;;;;;;;5.43;1.17;;;;;;;;;;4977045;28;20053;-73
2022/05/21 04:39:41;;;;;;;4.97;1.23;;;;;;;;;;4976906;28;20023;-73
2022/05/21 04:42:09;;;;;;;5.57;1.50;;;;;;;;;;4977031;28;20027;-72
2022/05/21 04:44:37;;;;;;;8.23;1.45;;;;;;;;;;4976457;28;20376;-72
2022/05/21 04:47:05;;;;;;;6.03;1.30;;;;;;;;;;4976798;28;20476;-72
2022/05/21 04:49:33;;;;;;;9.52;1.40;;;;;;;;;;4976697;28;20023;-73
2022/05/21 04:52:02;;;;;;;6.63;1.95;;;;;;;;;;4976666;28;20036;-73
2022/05/21 04:54:30;;;;;;;5.70;1.20;;;;;;;;;;4976793;28;20116;-73
2022/05/21 04:56:57;;;;;;;5.97;1.20;;;;;;;;;;4976769;28;20027;-73
2022/05/21 04:59:24;;;;;;;8.82;2.55;;;;;;;;;;4976638;28;20138;-73
2022/05/21 05:01:51;;;;;;;6.68;1.73;;;;;;;;;;4976830;28;20023;-73
2022/05/21 05:04:18;;;;;;;6.22;2.05;;;;;;;;;;4976371;28;20114;-73
2022/05/21 05:06:46;;;;;;;5.90;1.55;;;;;;;;;;4976457;28;20053;-73
2022/05/21 05:09:15;;;;;;;9.20;2.47;;;;;;;;;;4976549;28;20030;-73
2022/05/21 05:11:42;;;;;;;7.37;2.07;;;;;;;;;;4975067;28;20372;-73
2022/05/21 05:14:10;;;;;;;6.40;1.75;;;;;;;;;;4976651;28;20018;-73
2022/05/21 05:16:37;;;;;;;4.60;1.50;;;;;;;;;;4976264;28;20026;-73
2022/05/21 05:19:04;;;;;;;5.93;1.48;;;;;;;;;;4976398;28;20026;-73
2022/05/21 05:21:32;;;;;;;5.20;1.52;;;;;;;;;;4976147;28;20030;-73
2022/05/21 05:23:59;;;;;;;5.38;1.55;;;;;;;;;;4974872;28;20026;-73
2022/05/21 05:26:26;;;;;;;7.57;1.80;;;;;;;;;;4976310;28;20074;-72
2022/05/21 05:28:53;;;;;;;4.68;1.92;;;;;;;;;;4976015;28;20027;-71
2022/05/21 05:31:20;;;;;;;5.13;1.80;;;;;;;;;;4975879;28;20081;-72
2022/05/21 05:33:48;;;;;;;4.18;1.90;;;;;;;;;;4976052;28;20029;-72
2022/05/21 05:36:15;;;;;;;5.80;1.70;;;;;;;;;;4975838;28;20087;-71
2022/05/21 05:38:42;;;;;;;7.53;1.65;;;;;;;;;;4975816;28;20098;-71
2022/05/21 05:41:09;;;;;;;4.43;1.42;;;;;;;;;;4975713;28;20034;-71
2022/05/21 05:43:37;;;;;;;5.22;1.27;;;;;;;;;;4975700;28;20022;-71
2022/05/21 05:46:04;;;;;;;4.50;1.42;;;;;;;;;;4976079;28;20027;-72
2022/05/21 05:48:31;;;;;;;5.35;1.40;;;;;;;;;;4975644;28;20035;-71
2022/05/21 05:51:02;;;;;;;4.78;1.30;;;;;;;;;;4975532;28;20023;-72
2022/05/21 05:53:28;;;;;;;;;;;;;;;;;;4975999;28;20033;-71
2022/05/21 05:55:55;;;;;;;3.80;1.33;;;;;;;;;;4973302;28;19961;-71
2022/05/21 06:01:08;;;;;;;6.10;1.02;;;;;;;;;;4975755;28;20619;-71
2022/05/21 06:03:36;;;;;;;8.00;1.33;;;;;;;;;;4975254;28;20468;-72
2022/05/21 06:06:04;;;;;;;6.25;1.45;;;;;;;;;;4974972;28;20506;-72
2022/05/21 06:08:31;;;;;;;4.25;1.33;;;;;;;;;;4975254;28;20019;-71
2022/05/21 06:10:59;;;;;;;3.40;0.73;;;;;;;;;;4975180;28;20027;-72
2022/05/21 06:13:26;;;;;;;4.43;1.10;;;;;;;;;;4975326;28;20373;-72
2022/05/21 06:15:53;;;;;;;2.60;0.75;;;;;;;;;;4975238;28;20027;-72
2022/05/21 06:18:21;;;;;;;3.05;0.68;;;;;;;;;;4975181;28;20027;-71
2022/05/21 06:20:49;;;;;;;4.57;0.73;;;;;;;;;;4975119;28;20023;-73
2022/05/21 06:23:16;;;;;;;3.42;0.90;;;;;;;;;;4975132;28;20398;-72
2022/05/21 06:25:43;;;;;;;4.85;1.10;;;;;;;;;;4975046;28;20046;-72
2022/05/21 06:28:10;;;;;;;3.80;1.20;;;;;;;;;;4974908;28;20535;-72
2022/05/21 06:30:39;;;;;;;6.38;1.40;;;;;;;;;;4973604;28;20023;-72
2022/05/21 06:33:19;;;;;;;4.65;0.95;;;;;;;;;;4974928;28;20033;-71
2022/05/21 06:35:51;;;;;;;4.90;1.10;;;;;;;;;;4975118;28;20023;-71
2022/05/21 06:38:18;;;;;;;7.00;1.58;;;;;;;;;;4974980;28;20027;-72
2022/05/21 06:40:45;;;;;;;3.67;2.03;;;;;;;;;;4974832;28;20506;-71
2022/05/21 06:43:13;;;;;;;5.20;2.03;;;;;;;;;;4974523;28;20102;-72
2022/05/21 06:45:40;;;;;;;4.03;2.10;;;;;;;;;;4973125;28;20081;-72
2022/05/21 06:48:08;;;;;;;6.60;2.22;;;;;;;;;;4974512;28;20031;-71
2022/05/21 06:50:36;;;;;;;6.00;2.67;;;;;;;;;;4974645;28;20047;-71
2022/05/21 06:53:03;;;;;;;6.28;1.83;;;;;;;;;;4974600;28;20041;-71
2022/05/21 06:55:30;;;;;;;6.72;1.50;;;;;;;;;;4974517;28;20419;-72
2022/05/21 06:57:57;;;;;;;5.80;1.90;;;;;;;;;;4974676;28;20053;-72
2022/05/21 07:00:25;;;;;;;13.23;2.72;;;;;;;;;;4974962;28;20030;-72
2022/05/21 07:02:53;;;;;;;8.68;2.70;;;;;;;;;;4973220;28;20487;-72
2022/05/21 07:08:14;;;;;;;8.13;2.45;;;;;;;;;;4974518;28;20042;-73
2022/05/21 07:10:41;;;;;;;9.50;2.63;;;;;;;;;;4974452;28;20034;-73
2022/05/21 07:13:09;;;;;;;8.65;2.03;;;;;;;;;;4974347;28;20033;-74
2022/05/21 07:15:36;;;;;;;9.43;1.90;;;;;;;;;;4974344;28;20023;-73
2022/05/21 07:18:04;;;;;;;8.57;2.10;;;;;;;;;;4974520;28;20065;-73
2022/05/21 07:20:31;;;;;;;6.30;1.70;;;;;;;;;;4974269;28;20034;-73
2022/05/21 07:23:00;;;;;;;8.85;2.78;;;;;;;;;;4974292;28;20515;-73
2022/05/21 07:25:28;;;;;;;7.85;2.28;;;;;;;;;;4973341;28;20391;-73
2022/05/21 07:27:56;;;;;;;7.93;2.15;;;;;;;;;;4972922;28;20031;-74
2022/05/21 07:30:23;;;;;;;6.05;2.22;;;;;;;;;;4974288;28;20086;-74
2022/05/21 07:32:52;;;;;;;7.03;1.60;;;;;;;;;;4974115;28;20060;-73
2022/05/21 07:35:19;;;;;;;3.80;1.23;;;;;;;;;;4974209;28;20018;-73
2022/05/21 07:37:48;;;;;;;5.30;1.38;;;;;;;;;;4974220;28;20037;-72
2022/05/21 07:40:16;;;;;;;9.20;1.48;;;;;;;;;;4974106;28;20435;-72
2022/05/21 07:42:43;;;;;;;4.13;1.10;;;;;;;;;;4974081;28;20029;-73
2022/05/21 07:45:12;;;;;;;5.45;1.48;;;;;;;;;;4974034;28;20026;-73
2022/05/21 07:47:39;;;;;;;6.78;1.48;;;;;;;;;;4972784;28;20058;-74
2022/05/21 07:50:07;;;;;;;6.60;1.95;;;;;;;;;;4973911;28;20384;-74
2022/05/21 07:52:34;;;;;;;5.88;1.67;;;;;;;;;;4974173;28;20404;-73
2022/05/21 07:55:01;;;;;;;8.32;2.53;;;;;;;;;;4972674;28;20542;-73
2022/05/21 07:57:28;;;;;;;10.02;2.90;;;;;;;;;;4974059;28;20027;-73
2022/05/21 07:59:55;;;;;;;9.48;2.40;;;;;;;;;;4974063;28;20031;-73
2022/05/21 08:02:23;;;;;;;9.20;3.85;;;;;;;;;;4973886;28;20069;-73
2022/05/21 08:04:50;;;;;;;10.20;4.40;;;;;;;;;;4973814;28;20047;-73
2022/05/21 08:07:18;;;;;;;8.60;3.70;;;;;;;;;;4972564;28;20023;-73
2022/05/21 08:09:45;;;;;;;7.82;4.32;;;;;;;;;;4973843;28;20027;-73
2022/05/21 08:12:14;;;;;;;6.28;3.17;;;;;;;;;;4973742;28;20022;-73
2022/05/21 08:14:42;;;;;;;5.65;2.63;;;;;;;;;;4972444;28;20031;-73
2022/05/21 08:17:10;;;;;;;6.30;2.22;;;;;;;;;;4973745;28;20034;-73
2022/05/21 08:19:38;;;;;;;6.50;2.22;;;;;;;;;;4973629;28;20050;-73
2022/05/21 08:27:35;;;;;;;8.20;2.35;;;;;;;;;;4977416;28;20042;-73
2022/05/21 08:30:03;;;;;;;6.90;2.47;;;;;;;;;;4977172;28;20023;-73
2022/05/21 08:32:30;;;;;;;8.55;2.00;;;;;;;;;;4975836;28;20039;-73
2022/05/21 08:35:00;;;;;;;6.28;2.13;;;;;;;;;;4975810;28;20023;-73
2022/05/21 08:37:27;;;;;;;6.10;1.40;;;;;;;;;;4975811;28;20027;-73
2022/05/21 08:39:55;;;;;;;8.07;1.50;;;;;;;;;;4977047;28;20160;-72
2022/05/21 08:42:28;;;;;;;5.65;1.70;;;;;;;;;;4975581;28;20051;-72
2022/05/21 08:45:02;;;;;;;8.10;2.42;;;;;;;;;;4976791;28;20034;-72
2022/05/21 08:47:33;;;;;;;6.10;2.53;;;;;;;;;;4976922;28;20022;-73
2022/05/21 08:50:04;;;;;;;7.65;3.67;;;;;;;;;;4976773;28;20082;-72
2022/05/21 08:52:32;;;;;;;8.93;3.55;;;;;;;;;;4976900;28;20030;-72
2022/05/21 08:55:00;;;;;;;11.18;4.90;;;;;;;;;;4975426;28;20487;-72
2022/05/21 08:57:27;;;;;;;11.88;6.07;;;;;;;;;;4976941;28;20023;-73
2022/05/21 09:00:03;;;;;;;10.43;5.72;;;;;;;;;;4976663;28;20506;-73
2022/05/21 09:02:34;;;;;;;9.43;4.40;;;;;;;;;;4976703;28;20130;-73
2022/05/21 09:05:01;;;;;;;6.43;2.80;;;;;;;;;;4976329;28;20122;-72
2022/05/21 09:07:32;;;;;;;5.90;1.90;;;;;;;;;;4974918;28;20034;-73
2022/05/21 09:10:08;;;;;;;7.18;2.40;;;;;;;;;;4976669;28;20483;-73
2022/05/21 09:12:42;;;;;;;5.07;1.85;;;;;;;;;;4976373;28;20069;-73
2022/05/21 09:16:54;;;;;;;6.07;1.83;;;;;;;;;;4975051;28;20089;-73
2022/05/21 09:18:09;;;;;;;5.82;1.65;;;;;;;;;;4976188;28;20123;-73
2022/05/21 09:21:08;;;;;;;5.38;2.00;;;;;;;;;;4976332;28;20027;-73
2022/05/21 09:23:49;;;;;;;6.57;2.97;;;;;;;;;;4943655;28;20069;-72
2022/05/21 09:26:18;;;;;;;8.75;4.35;;;;;;;;;;4976045;28;20085;-72
2022/05/21 09:28:48;;;;;;;6.93;3.80;;;;;;;;;;4976071;28;20034;-72
2022/05/21 09:31:23;;;;;;;6.68;3.83;;;;;;;;;;4974635;28;20399;-72
2022/05/21 09:33:50;;;;;;;9.82;4.50;;;;;;;;;;4976231;28;20489;-72
2022/05/21 09:36:21;;;;;;;13.30;4.95;;;;;;;;;;4976100;28;20058;-71
2022/05/21 09:38:51;;;;;;;10.32;6.05;;;;;;;;;;4976065;28;20015;-71
2022/05/21 09:41:20;;;;;;;11.85;6.60;;;;;;;;;;4974584;28;20114;-71
2022/05/21 09:47:24;;;;;;;16.60;8.52;;;;;;;;;;4975722;28;20042;-73
2022/05/21 09:50:09;;;;;;;12.38;8.05;;;;;;;;;;4967188;28;20538;-72
2022/05/21 09:52:36;;;;;;;11.60;6.03;;;;;;;;;;4975528;28;20122;-72
2022/05/21 09:55:19;;;;;;;11.35;5.78;;;;;;;;;;4974179;28;20050;-72
2022/05/21 09:57:47;;;;;;;12.75;5.82;;;;;;;;;;4974190;28;20450;-72
2022/05/21 10:00:31;;;;;;;10.60;5.75;;;;;;;;;;4974524;28;20053;-72
2022/05/21 10:03:00;;;;;;;12.30;6.43;;;;;;;;;;4975685;28;20475;-72
2022/05/21 10:05:27;;;;;;;10.63;6.32;;;;;;;;;;4975093;28;20450;-72
2022/05/21 10:11:00;;;;;;;13.38;6.30;;;;;;;;;;4975392;28;20054;-73
2022/05/21 10:13:30;;;;;;;13.15;5.82;;;;;;;;;;4975292;28;20046;-73
2022/05/21 10:16:10;;;;;;;7.10;3.28;;;;;;;;;;4975500;28;20023;-75
2022/05/21 10:18:39;;;;;;;9.93;3.53;;;;;;;;;;4975489;28;20019;-73
2022/05/21 10:21:17;;;;;;;4.27;1.80;;;;;;;;;;4975107;28;20070;-73
2022/05/21 10:23:50;;;;;;;5.65;2.28;;;;;;;;;;4973816;28;20269;-73
2022/05/21 10:26:40;;;;;;;5.22;2.28;;;;;;;;;;4975209;28;20031;-74
2022/05/21 10:29:16;;;;;;;5.93;1.90;;;;;;;;;;4975239;28;20031;-75
2022/05/21 10:31:43;;;;;;;4.70;1.30;;;;;;;;;;4974872;28;20046;-75
2022/05/21 10:34:11;;;;;;;6.38;1.40;;;;;;;;;;4975157;28;20042;-75
2022/05/21 10:36:49;;;;;;;6.00;1.30;;;;;;;;;;4974868;28;20027;-75
2022/05/21 10:39:54;;;;;;;4.03;1.17;;;;;;;;;;4974917;28;20031;-75
2022/05/21 10:42:31;;;;;;;6.18;1.00;;;;;;;;;;4933856;29;20027;-74
2022/05/21 10:44:58;;;;;;;5.57;0.93;;;;;;;;;;4934435;29;20147;-74
2022/05/21 10:47:39;;;;;;;4.15;1.00;;;;;;;;;;4947950;28;20056;-75
2022/05/21 10:50:06;;;;;;;;;;;;;;;;;;4975248;28;20031;-74
2022/05/21 10:52:57;;;;;;;6.15;1.83;;;;;;;;;;4974825;28;19906;-74
2022/05/21 10:55:47;;;;;;;7.55;2.22;;;;;;;;;;4974637;28;20022;-74
2022/05/21 10:58:22;;;;;;;8.57;2.20;;;;;;;;;;4969429;28;20113;-74
2022/05/21 11:01:07;;;;;;;7.40;2.90;;;;;;;;;;4974611;28;20027;-75
2022/05/21 11:03:44;;;;;;;7.13;3.10;;;;;;;;;;4974460;28;20031;-75
2022/05/21 11:06:21;;;;;;;6.38;3.30;;;;;;;;;;4973200;28;20070;-74
2022/05/21 11:09:06;;;;;;;6.55;3.72;;;;;;;;;;4974245;28;20030;-74
2022/05/21 11:11:37;;;;;;;7.93;4.40;;;;;;;;;;4974717;28;20030;-74
2022/05/21 11:14:15;;;;;;;8.38;4.05;;;;;;;;;;4973024;28;20030;-74
2022/05/21 11:16:46;;;;;;;10.80;4.88;;;;;;;;;;4974490;28;20027;-75
2022/05/21 11:19:16;;;;;;;11.27;4.97;;;;;;;;;;4974367;28;20547;-73
2022/05/21 11:21:47;;;;;;;6.35;4.95;;;;;;;;;;4974423;28;20015;-74
2022/05/21 11:24:20;;;;;;;8.27;5.20;;;;;;;;;;4974532;28;20023;-75
2022/05/21 11:26:47;;;;;;;7.45;5.00;;;;;;;;;;4974505;28;20029;-75
2022/05/21 11:29:34;;;;;;;12.25;5.10;;;;;;;;;;4972770;28;20451;-75
2022/05/21 11:37:53;;;;;;;11.48;5.82;;;;;;;;;;4974026;28;20069;-75
2022/05/21 11:46:52;;;;;;;10.73;6.95;;;;;;;;;;4933470;29;20043;-75
2022/05/21 11:49:32;;;;;;;10.55;6.05;;;;;;;;;;4970052;28;20047;-75
2022/05/21 11:51:59;;;;;;;11.40;7.07;;;;;;;;;;4972646;28;20491;-74
2022/05/21 11:54:45;;;;;;;9.35;6.22;;;;;;;;;;4974991;28;20029;-75
2022/05/21 11:57:12;;;;;;;9.90;5.45;;;;;;;;;;4977807;28;20027;-74
2022/05/21 11:59:52;;;;;;;8.43;5.57;;;;;;;;;;4977905;28;20098;-75
2022/05/21 12:02:22;;;;;;;7.17;5.63;;;;;;;;;;4977977;28;20022;-74
2022/05/21 12:04:52;;;;;;;8.23;5.30;;;;;;;;;;4977584;28;20102;-74
2022/05/21 12:07:37;;;;;;;10.02;5.45;;;;;;;;;;4977883;28;20031;-74
2022/05/21 12:10:14;;;;;;;6.97;4.93;;;;;;;;;;4977466;28;20086;-74
2022/05/21 12:13:22;;;;;;;9.90;7.35;;;;;;;;;;4977559;28;20407;-74
2022/05/21 12:15:51;;;;;;;8.32;4.55;;;;;;;;;;4936979;29;20024;-75
2022/05/21 12:18:27;;;;;;;8.85;4.50;;;;;;;;;;4936862;29;20027;-75
2022/05/21 12:20:55;;;;;;;6.72;3.75;;;;;;;;;;4960525;28;20444;-76
2022/05/21 12:23:40;;;;;;;7.38;5.30;;;;;;;;;;4977224;28;20082;-75
2022/05/21 12:26:19;;;;;;;7.40;5.88;;;;;;;;;;4976038;28;20033;-75
2022/05/21 12:28:48;;;;;;;8.10;5.88;;;;;;;;;;4977310;28;20018;-76
2022/05/21 12:31:24;;;;;;;6.88;4.47;;;;;;;;;;4977013;28;20027;-76
2022/05/21 12:34:03;;;;;;;6.63;4.45;;;;;;;;;;4977212;28;20031;-76
2022/05/21 12:36:40;;;;;;;7.15;5.55;;;;;;;;;;4977254;28;20077;-76
2022/05/21 12:39:11;;;;;;;8.18;4.85;;;;;;;;;;4977310;28;20386;-76
2022/05/21 12:41:37;;;;;;;;;;;;;;;;;;4976234;28;20030;-76
2022/05/21 12:44:05;;;;;;;6.35;5.20;;;;;;;;;;4976961;28;19913;-76
2022/05/21 12:46:36;;;;;;;5.60;4.00;;;;;;;;;;4977270;28;20019;-77
2022/05/21 12:49:05;;;;;;;5.90;3.92;;;;;;;;;;4975596;28;20022;-77
2022/05/21 12:51:38;;;;;;;8.23;4.25;;;;;;;;;;4976957;28;20023;-76
2022/05/21 12:54:08;;;;;;;7.03;4.70;;;;;;;;;;4977190;28;20104;-75
2022/05/21 12:56:37;;;;;;;7.38;4.40;;;;;;;;;;4976943;28;20038;-74
2022/05/21 12:59:10;;;;;;;7.28;4.38;;;;;;;;;;4976696;28;20138;-74
2022/05/21 13:01:43;;;;;;;7.15;4.40;;;;;;;;;;4976831;28;20055;-74
2022/05/21 13:04:42;;;;;;;6.55;4.28;;;;;;;;;;4976545;28;20130;-75
2022/05/21 13:07:15;;;;;;;5.57;4.13;;;;;;;;;;4954671;28;20035;-74
2022/05/21 13:09:57;;;;;;;7.45;4.25;;;;;;;;;;4976635;28;20023;-75
2022/05/21 13:12:25;;;;;;;6.93;3.83;;;;;;;;;;4976735;28;20027;-75
2022/05/21 13:14:52;;;;;;;5.88;3.78;;;;;;;;;;4975487;28;20027;-75
2022/05/21 13:17:27;;;;;;;7.38;5.00;;;;;;;;;;4976391;28;20387;-76
2022/05/21 13:19:55;;;;;;;7.72;6.18;;;;;;;;;;4975045;28;20031;-75
2022/05/21 13:22:22;;;;;;;7.63;6.53;;;;;;;;;;4976506;28;20023;-74
2022/05/21 13:25:10;;;;;;;9.30;7.85;;;;;;;;;;4976253;28;20173;-73
2022/05/21 13:27:45;;;;;;;9.15;8.18;;;;;;;;;;4976126;28;20038;-73
2022/05/21 13:30:14;;;;;;;9.15;8.10;;;;;;;;;;4974725;28;20031;-73
2022/05/21 13:32:41;;;;;;;8.98;7.65;;;;;;;;;;4976190;28;20026;-73
2022/05/21 13:35:22;;;;;;;8.93;7.90;;;;;;;;;;4974762;28;20118;-74
2022/05/21 13:37:50;;;;;;;8.98;7.65;;;;;;;;;;4976052;28;20097;-74
2022/05/21 13:40:28;;;;;;;11.30;8.02;;;;;;;;;;4975981;28;20034;-73
2022/05/21 13:42:57;;;;;;;11.55;8.32;;;;;;;;;;4974555;28;20027;-74
2022/05/21 13:45:29;;;;;;;9.35;8.45;;;;;;;;;;4974520;28;20026;-73
2022/05/21 13:48:07;;;;;;;9.77;8.35;;;;;;;;;;4976048;28;20033;-74
2022/05/21 13:50:35;;;;;;;10.00;8.60;;;;;;;;;;4974401;28;20033;-74
2022/05/21 13:53:03;;;;;;;9.98;8.15;;;;;;;;;;4975861;28;20092;-74
2022/05/21 13:55:30;;;;;;;8.75;7.95;;;;;;;;;;4976029;28;20190;-74
2022/05/21 13:58:22;;;;;;;9.93;8.95;;;;;;;;;;4975792;28;20153;-74
2022/05/21 14:00:49;;;;;;;11.27;9.80;;;;;;;;;;4974598;28;20027;-75
2022/05/21 14:03:21;;;;;;;10.40;9.00;;;;;;;;;;4975919;28;20463;-74
2022/05/21 14:05:48;;;;;;;10.40;8.32;;;;;;;;;;4974609;28;20527;-75
2022/05/21 14:08:20;;;;;;;8.82;8.02;;;;;;;;;;4975551;28;20102;-74
2022/05/21 14:10:49;;;;;;;9.38;8.38;;;;;;;;;;4974041;28;20026;-74
2022/05/21 14:13:36;;;;;;;8.65;7.57;;;;;;;;;;4975440;28;20018;-75
2022/05/21 14:16:23;;;;;;;8.85;7.95;;;;;;;;;;4975403;28;20025;-74
2022/05/21 14:19:05;;;;;;;9.45;7.82;;;;;;;;;;4974922;28;20019;-74
2022/05/21 14:21:32;;;;;;;7.95;7.10;;;;;;;;;;4975491;28;20041;-74
2022/05/21 14:24:24;;;;;;;8.30;7.35;;;;;;;;;;4973856;28;20031;-75
2022/05/21 14:26:57;;;;;;;9.30;7.47;;;;;;;;;;4975352;28;20027;-75
2022/05/21 14:29:34;;;;;;;10.10;8.20;;;;;;;;;;4973667;28;20460;-75
2022/05/21 14:32:19;;;;;;;10.48;9.32;;;;;;;;;;4975219;28;20495;-75
2022/05/21 14:34:48;;;;;;;11.80;9.40;;;;;;;;;;4973688;28;20061;-74
2022/05/21 14:37:22;;;;;;;11.05;8.88;;;;;;;;;;4974886;28;20027;-74
2022/05/21 14:39:49;;;;;;;10.20;9.10;;;;;;;;;;4974878;28;20026;-75
2022/05/21 14:42:16;;;;;;;9.68;8.65;;;;;;;;;;4974856;28;20126;-75
2022/05/21 14:44:45;;;;;;;11.90;9.05;;;;;;;;;;4974866;28;20090;-74
2022/05/21 14:52:53;;;;;;;14.70;11.02;;;;;;;;;;4974670;28;20530;-75
2022/05/21 14:55:21;;;;;;;11.93;10.80;;;;;;;;;;4973370;28;20089;-75
2022/05/21 14:57:49;;;;;;;12.02;10.80;;;;;;;;;;4973263;28;20029;-75
2022/05/21 15:00:18;;;;;;;14.48;12.98;;;;;;;;;;4974623;28;20025;-75
2022/05/21 15:02:45;;;;;;;13.43;12.02;;;;;;;;;;4974552;28;20027;-75
2022/05/21 15:05:13;;;;;;;14.13;12.73;;;;;;;;;;4974282;28;20050;-75
2022/05/21 15:07:46;;;;;;;15.30;13.68;;;;;;;;;;4974419;28;20437;-75
2022/05/21 15:10:15;;;;;;;12.60;11.40;;;;;;;;;;4974356;28;20023;-75
2022/05/21 15:12:42;;;;;;;13.90;11.77;;;;;;;;;;4974361;28;20045;-75
2022/05/21 15:15:14;;;;;;;12.93;11.63;;;;;;;;;;4974569;28;20022;-75
2022/05/21 15:17:41;;;;;;;12.50;11.20;;;;;;;;;;4974261;28;20026;-74
2022/05/21 15:20:10;;;;;;;12.68;11.48;;;;;;;;;;4974550;28;20395;-75
2022/05/21 15:22:38;;;;;;;11.90;10.75;;;;;;;;;;4974263;28;20027;-74
2022/05/21 15:25:06;;;;;;;11.68;10.57;;;;;;;;;;4974228;28;20102;-75
2022/05/21 15:27:34;;;;;;;11.15;10.13;;;;;;;;;;4972962;28;20399;-75
2022/05/21 15:30:01;;;;;;;9.18;8.30;;;;;;;;;;4972696;28;20530;-74
2022/05/21 15:32:29;;;;;;;8.93;8.02;;;;;;;;;;4974207;28;20046;-75
2022/05/21 15:34:56;;;;;;;8.95;7.55;;;;;;;;;;4974207;28;20069;-75
2022/05/21 15:37:23;;;;;;;10.05;7.30;;;;;;;;;;4974188;28;20423;-74
2022/05/21 15:39:52;;;;;;;7.45;6.53;;;;;;;;;;4974220;28;20112;-74
2022/05/21 15:42:23;;;;;;;7.47;5.95;;;;;;;;;;4974091;28;20107;-74
2022/05/21 15:44:51;;;;;;;7.00;5.72;;;;;;;;;;4974411;28;20029;-74
2022/05/21 15:47:18;;;;;;;6.38;5.45;;;;;;;;;;4974001;28;20420;-75